Cooke City, Montana
Current Conditions -  °F | °C
As of 2:53 PM on Thursday 18 Dec 2014 (Local Time) from KLVM Reporting Station
Scattered Clouds Scattered Clouds  
Wind Chill: 33°   Ceiling: Unl
Heat Index: 41°   Visibility: 10mi
Dew Point: 20°   Wind: 16mph
Humidity: 43%   Direction: 210°SSW
Pressure: 29.95"   Gusts: 26mph
Location:  45.02°N, 109.94°W
Report Text: KLVM 182153Z AUTO 21014G23KT 10SM SCT075 05/M07 A2995 RMK AO2 PK WND 20038/2058 SLP156 T00501067
Loading
Personal Weather Stations






























Interactive Weather Map New forecast layout! Learn more

10-Day Weather Forecast

Advertisements
Track Severe Weather on mobile